Time;durP1;ratioP1;P1;durP2;ratioP2;P2;SDS_P1;SDS_P2;PMS_P1;PMS_P2;Temp;Humidity;BMP_temperature;BMP_pressure;BME280_temperature;BME280_humidity;BME280_pressure;Samples;Min_cycle;Max_cycle;Signal;HPM_P1;HPM_P2
2021/11/04 00:01:34;;;;;;;1.60;1.35;;;;;;;13.61;53.17;93755.84;4990822;28;20038;-73
2021/11/04 00:03:59;;;;;;;1.20;1.10;;;;;;;13.65;53.34;93755.91;4990453;28;20022;-73
2021/11/04 00:06:24;;;;;;;1.90;1.80;;;;;;;13.66;53.30;93762.78;4990626;28;20364;-73
2021/11/04 00:08:50;;;;;;;1.63;1.52;;;;;;;13.67;53.32;93765.13;4990093;28;20026;-73
2021/11/04 00:11:15;;;;;;;1.20;1.10;;;;;;;13.67;53.15;93761.69;4979943;28;20436;-73
2021/11/04 00:13:41;;;;;;;1.45;1.35;;;;;;;13.63;53.04;93740.25;4972790;28;20719;-73
2021/11/04 00:16:09;;;;;;;1.60;1.05;;;;;;;13.73;53.25;93774.38;4973936;28;20031;-72
2021/11/04 00:18:35;;;;;;;4.55;1.55;;;;;;;13.75;53.15;93756.06;4969734;28;20389;-73
2021/11/04 00:21:01;;;;;;;1.45;1.35;;;;;;;13.78;53.11;93746.59;4970768;28;20023;-73
2021/11/04 00:23:26;;;;;;;1.48;1.38;;;;;;;13.72;52.86;93740.00;4969470;28;20396;-73
2021/11/04 00:25:52;;;;;;;1.50;1.40;;;;;;;13.83;52.67;93756.22;4969499;28;20057;-73
2021/11/04 00:28:18;;;;;;;1.38;1.15;;;;;;;13.81;52.67;93743.19;4982024;28;20400;-73
2021/11/04 00:30:44;;;;;;;1.42;1.33;;;;;;;13.83;52.82;93754.31;4989847;28;20049;-73
2021/11/04 00:33:10;;;;;;;1.50;1.10;;;;;;;13.91;52.75;93763.97;4989929;28;20038;-73
2021/11/04 00:35:35;;;;;;;1.40;1.30;;;;;;;13.85;52.53;93752.03;5005197;28;20049;-72
2021/11/04 00:38:02;;;;;;;1.60;1.33;;;;;;;13.83;52.33;93764.22;4990208;28;20027;-73
2021/11/04 00:40:27;;;;;;;1.92;1.00;;;;;;;13.79;52.75;93750.81;4980384;28;20053;-73
2021/11/04 00:42:53;;;;;;;1.92;1.73;;;;;;;13.79;53.02;93748.91;4989787;28;20058;-73
2021/11/04 00:45:18;;;;;;;2.03;1.40;;;;;;;13.78;52.79;93742.00;4985965;28;20030;-73
2021/11/04 00:47:44;;;;;;;1.67;1.20;;;;;;;13.76;52.97;93751.50;4993944;28;20026;-73
2021/11/04 00:50:10;;;;;;;2.15;1.45;;;;;;;13.73;54.09;93750.31;4993623;28;20026;-73
2021/11/04 00:52:35;;;;;;;2.28;1.30;;;;;;;13.66;54.18;93746.75;4993515;28;20038;-72
2021/11/04 00:55:01;;;;;;;1.88;1.38;;;;;;;13.62;54.86;93743.28;4987396;28;20472;-73
2021/11/04 00:57:26;;;;;;;2.97;1.88;;;;;;;13.59;54.98;93742.06;4982520;28;20038;-73
2021/11/04 00:59:51;;;;;;;1.55;1.20;;;;;;;13.58;55.52;93734.41;4985259;28;20089;-73
2021/11/04 01:02:17;;;;;;;5.22;2.10;;;;;;;13.47;55.26;93731.56;4992732;28;20030;-73
2021/11/04 01:04:42;;;;;;;2.00;1.80;;;;;;;13.45;56.05;93741.81;4993634;28;20028;-73
2021/11/04 01:07:08;;;;;;;1.90;1.80;;;;;;;13.45;56.01;93731.91;4992451;28;20471;-73
2021/11/04 01:09:33;;;;;;;2.50;1.90;;;;;;;13.44;56.03;93734.94;4987428;28;20030;-73
2021/11/04 01:11:59;;;;;;;1.80;1.70;;;;;;;13.43;56.16;93731.50;4967111;28;20070;-72
2021/11/04 01:14:24;;;;;;;1.90;1.67;;;;;;;13.44;56.08;93738.38;4983840;28;20490;-73
2021/11/04 01:16:50;;;;;;;3.03;1.65;;;;;;;13.44;56.30;93745.63;4993618;28;20084;-73
2021/11/04 01:19:15;;;;;;;5.50;1.80;;;;;;;13.39;56.46;93746.69;4993310;28;20031;-72
2021/11/04 01:21:42;;;;;;;1.80;1.70;;;;;;;13.42;56.48;93748.66;4992269;28;20030;-73
2021/11/04 01:24:07;;;;;;;1.77;1.65;;;;;;;13.43;56.70;93739.53;4992108;28;20579;-73
2021/11/04 01:26:33;;;;;;;1.60;1.48;;;;;;;13.07;56.67;93729.31;4976399;28;20129;-73
2021/11/04 01:28:59;;;;;;;1.83;1.10;;;;;;;11.69;58.68;93756.06;4977352;28;20057;-73
2021/11/04 01:31:24;;;;;;;3.20;1.40;;;;;;;12.07;58.41;93762.69;4992883;28;20033;-73
2021/11/04 01:33:50;;;;;;;1.50;1.10;;;;;;;12.16;58.41;93755.28;4991963;28;20713;-74
2021/11/04 01:36:15;;;;;;;1.30;1.00;;;;;;;11.52;58.98;93747.66;4993037;28;20434;-73
2021/11/04 01:38:40;;;;;;;1.85;1.35;;;;;;;11.60;59.10;93741.38;4993372;28;20057;-73
2021/11/04 01:41:06;;;;;;;1.48;1.20;;;;;;;11.24;60.40;93732.50;4965043;28;20023;-73
2021/11/04 01:43:31;;;;;;;2.97;1.15;;;;;;;10.79;61.04;93728.28;4980585;28;20027;-73
2021/11/04 01:45:57;;;;;;;1.40;1.30;;;;;;;10.90;61.47;93718.72;4984377;28;20038;-73
2021/11/04 01:48:22;;;;;;;1.17;1.10;;;;;;;9.36;66.58;93724.06;4993374;28;20487;-74
2021/11/04 01:50:48;;;;;;;1.65;1.55;;;;;;;9.53;66.57;93719.66;4992152;28;20026;-73
2021/11/04 01:53:16;;;;;;;1.50;1.40;;;;;;;9.02;68.64;93719.16;4992715;28;20057;-73
2021/11/04 01:55:42;;;;;;;2.33;1.80;;;;;;;8.99;68.45;93720.56;4977581;28;20080;-74
2021/11/04 01:58:07;;;;;;;2.55;2.08;;;;;;;8.98;67.50;93695.16;4977222;28;20023;-74
2021/11/04 02:00:33;;;;;;;2.78;2.10;;;;;;;9.73;66.78;93752.53;4984635;28;20105;-73
2021/11/04 02:03:26;;;;;;;3.85;2.60;;;;;;;10.14;64.49;93759.47;4992513;28;20027;-73
2021/11/04 02:06:03;;;;;;;4.13;2.80;;;;;;;9.77;65.59;93769.31;4991386;28;20081;-73
2021/11/04 02:08:36;;;;;;;4.03;2.90;;;;;;;10.39;65.38;93758.34;4992706;28;20054;-73
2021/11/04 02:11:10;;;;;;;4.07;2.85;;;;;;;9.99;65.21;93752.19;4991552;28;20019;-73
2021/11/04 02:14:08;;;;;;;2.97;2.03;;;;;;;8.88;69.15;93753.91;4977798;28;20019;-74
2021/11/04 02:16:34;;;;;;;2.22;2.05;;;;;;;9.37;68.16;93746.84;4945815;28;20086;-73
2021/11/04 02:19:12;;;;;;;2.60;2.40;;;;;;;9.48;66.61;93754.38;4953540;29;20118;-73
2021/11/04 02:21:58;;;;;;;19.73;2.20;;;;;;;8.97;67.67;93740.56;4953666;29;20105;-73
2021/11/04 02:24:33;;;;;;;3.70;1.70;;;;;;;8.14;71.31;93723.63;4953399;28;20026;-73
2021/11/04 02:27:01;;;;;;;2.42;2.03;;;;;;;8.20;71.18;93735.56;4985849;28;20052;-72
2021/11/04 02:29:27;;;;;;;1.85;1.65;;;;;;;7.94;70.41;93729.69;4997811;28;20022;-73
2021/11/04 02:31:52;;;;;;;8.05;1.80;;;;;;;7.65;72.49;93738.38;4992304;28;20026;-73
2021/11/04 02:34:18;;;;;;;1.30;0.80;;;;;;;7.16;73.47;93740.59;4992165;28;20023;-74
2021/11/04 02:36:45;;;;;;;2.22;2.03;;;;;;;7.40;73.41;93714.38;4992214;28;20030;-73
2021/11/04 02:39:12;;;;;;;2.22;1.77;;;;;;;7.46;73.98;93720.25;4991916;28;20163;-73
2021/11/04 02:41:37;;;;;;;4.50;1.63;;;;;;;7.59;72.44;93713.22;4974530;28;20054;-74
2021/11/04 02:44:08;;;;;;;1.20;0.60;;;;;;;7.18;72.55;93717.28;4981342;28;20641;-76
2021/11/04 02:46:34;;;;;;;2.15;1.95;;;;;;;6.88;73.13;93729.63;4954117;28;20023;-76
2021/11/04 02:49:00;;;;;;;1.83;1.70;;;;;;;7.08;73.27;93736.91;4953453;28;20037;-72
2021/11/04 02:51:25;;;;;;;1.27;1.15;;;;;;;7.09;73.63;93735.81;4953682;29;20536;-73
2021/11/04 02:53:51;;;;;;;2.65;1.33;;;;;;;6.91;73.34;93739.56;4953099;28;20023;-73
2021/11/04 02:56:16;;;;;;;1.30;1.20;;;;;;;7.00;74.00;93742.97;4966786;28;20449;-73
2021/11/04 02:58:41;;;;;;;2.00;1.80;;;;;;;7.34;72.32;93739.47;4968142;28;20031;-73
2021/11/04 03:01:07;;;;;;;2.40;2.08;;;;;;;7.87;70.90;93750.56;4977243;28;20102;-73
2021/11/04 03:03:34;;;;;;;2.47;2.15;;;;;;;7.92;70.08;93747.75;4971389;28;20085;-74
2021/11/04 03:06:00;;;;;;;1.50;1.20;;;;;;;7.25;71.90;93757.22;4972547;28;20081;-73
2021/11/04 03:08:25;;;;;;;2.60;1.83;;;;;;;7.32;71.73;93732.91;4972331;28;20084;-73
2021/11/04 03:10:52;;;;;;;2.45;1.90;;;;;;;7.15;72.73;93716.03;4971197;28;20031;-74
2021/11/04 03:13:18;;;;;;;1.73;1.50;;;;;;;7.00;73.83;93727.88;4978873;28;20427;-73
2021/11/04 03:15:49;;;;;;;2.00;1.80;;;;;;;7.47;72.43;93721.81;4998438;28;20030;-74
2021/11/04 03:18:15;;;;;;;2.17;1.98;;;;;;;7.08;73.25;93726.31;4992014;28;20049;-74
2021/11/04 03:20:41;;;;;;;1.35;1.25;;;;;;;7.03;72.78;93721.22;4991423;28;20030;-75
2021/11/04 03:23:08;;;;;;;3.38;1.67;;;;;;;6.96;73.23;93719.06;4991776;28;20460;-74
2021/11/04 03:25:34;;;;;;;2.15;1.95;;;;;;;7.66;70.33;93721.41;4983727;28;20029;-74
2021/11/04 03:28:02;;;;;;;2.30;2.10;;;;;;;7.22;72.25;93720.84;4963895;28;20034;-76
2021/11/04 03:30:35;;;;;;;3.35;1.92;;;;;;;6.94;72.52;93720.44;4975467;28;20026;-75
2021/11/04 03:33:02;;;;;;;2.20;2.00;;;;;;;7.12;72.85;93715.91;4991755;28;20057;-79
2021/11/04 03:35:30;;;;;;;1.92;1.83;;;;;;;7.37;72.28;93724.81;4992757;28;20475;-70
2021/11/04 03:37:57;;;;;;;1.60;1.42;;;;;;;6.95;73.23;93716.72;4992566;28;20348;-81
2021/11/04 03:40:25;;;;;;;2.47;1.85;;;;;;;6.92;73.59;93714.72;4989631;28;20031;-73
2021/11/04 03:42:51;;;;;;;1.95;1.75;;;;;;;7.44;72.09;93746.28;4960525;28;20031;-79
2021/11/04 03:45:19;;;;;;;2.20;1.58;;;;;;;7.24;72.43;93745.09;4954105;28;20549;-79
2021/11/04 03:47:45;;;;;;;5.22;4.03;;;;;;;7.75;70.08;93751.25;4953337;28;20038;-77
2021/11/04 03:50:13;;;;;;;0.52;0.52;;;;;;;6.70;73.26;93773.81;4953028;28;20031;-77
2021/11/04 03:52:43;;;;;;;2.20;2.00;;;;;;;6.97;72.07;93756.84;4952509;28;20042;-70
2021/11/04 03:55:10;;;;;;;2.22;2.03;;;;;;;7.25;71.66;93758.00;4953120;28;20559;-70
2021/11/04 03:57:39;;;;;;;2.65;2.35;;;;;;;7.58;70.64;93772.53;4990484;28;20022;-70
2021/11/04 04:00:07;;;;;;;3.47;2.40;;;;;;;7.44;70.53;93770.84;4978339;28;20033;-71
2021/11/04 04:02:33;;;;;;;3.80;2.22;;;;;;;7.99;69.36;93775.28;4969896;28;20031;-70
2021/11/04 04:04:58;;;;;;;3.40;2.72;;;;;;;7.96;69.35;93780.44;4971026;28;20033;-70
2021/11/04 04:07:31;;;;;;;3.38;2.83;;;;;;;8.46;68.16;93788.41;4970993;28;20353;-70
2021/11/04 04:09:58;;;;;;;3.00;2.70;;;;;;;8.62;66.87;93790.47;4970092;28;20027;-70
2021/11/04 04:12:23;;;;;;;4.50;2.92;;;;;;;8.39;68.54;93809.31;4990454;28;20042;-70
2021/11/04 04:14:50;;;;;;;2.90;2.60;;;;;;;8.42;67.01;93808.69;4974873;28;20015;-70
2021/11/04 04:17:16;;;;;;;3.20;2.90;;;;;;;8.57;66.02;93800.16;4988214;28;20038;-70
2021/11/04 04:19:42;;;;;;;4.22;3.50;;;;;;;9.15;66.66;93796.88;4990250;28;20699;-71
2021/11/04 04:22:07;;;;;;;3.75;3.17;;;;;;;8.57;67.06;93791.44;4989153;28;20030;-70
2021/11/04 04:24:33;;;;;;;3.40;3.10;;;;;;;8.04;68.31;93801.56;4988925;28;20030;-70
2021/11/04 04:27:00;;;;;;;3.97;2.90;;;;;;;8.13;68.02;93804.16;4986873;28;20026;-70
2021/11/04 04:29:26;;;;;;;6.60;3.83;;;;;;;8.74;66.94;93801.91;4976989;28;20042;-70
2021/11/04 04:31:51;;;;;;;3.10;2.80;;;;;;;8.22;67.79;93798.81;4969955;28;20356;-70
2021/11/04 04:34:16;;;;;;;3.10;2.80;;;;;;;7.99;68.57;93806.28;4970928;28;20589;-70
2021/11/04 04:36:42;;;;;;;2.55;2.35;;;;;;;7.53;70.21;93802.59;4969768;28;20090;-72
2021/11/04 04:39:07;;;;;;;3.72;3.40;;;;;;;8.15;69.17;93812.56;4970665;28;20033;-71
2021/11/04 04:41:33;;;;;;;3.38;3.08;;;;;;;8.10;69.04;93810.09;4972050;28;20033;-70
2021/11/04 04:43:58;;;;;;;3.40;3.10;;;;;;;8.33;67.43;93818.53;4975614;28;20027;-71
2021/11/04 04:46:23;;;;;;;3.72;3.40;;;;;;;8.33;67.89;93834.44;4981938;28;20030;-70
2021/11/04 04:48:49;;;;;;;4.47;4.03;;;;;;;8.74;67.15;93848.84;4990231;28;20105;-71
2021/11/04 04:51:15;;;;;;;3.65;3.28;;;;;;;9.09;65.91;93857.31;4989730;28;20541;-70
2021/11/04 04:53:41;;;;;;;3.53;3.20;;;;;;;8.90;66.86;93855.09;5005157;28;20582;-70
2021/11/04 04:56:06;;;;;;;3.80;3.40;;;;;;;8.57;67.99;93831.97;4976867;28;20102;-70
2021/11/04 04:58:32;;;;;;;2.95;2.75;;;;;;;8.13;68.30;93817.41;4971202;28;20064;-70
2021/11/04 05:00:57;;;;;;;2.88;2.33;;;;;;;7.58;70.61;93805.06;4981490;28;20026;-70
2021/11/04 05:03:23;;;;;;;2.95;2.42;;;;;;;7.72;70.18;93808.25;4989572;28;20383;-70
2021/11/04 05:05:48;;;;;;;4.07;2.47;;;;;;;7.53;69.46;93826.41;4989753;28;20055;-71
2021/11/04 05:08:14;;;;;;;2.42;2.22;;;;;;;8.09;68.64;93832.41;5004637;28;20587;-71
2021/11/04 05:10:39;;;;;;;2.35;2.15;;;;;;;7.58;69.38;93822.81;4998573;28;20030;-70
2021/11/04 05:13:04;;;;;;;2.55;2.35;;;;;;;8.14;69.07;93823.47;4972033;28;20443;-69
2021/11/04 05:15:30;;;;;;;2.63;2.42;;;;;;;7.91;68.90;93836.97;4980073;28;20021;-70
2021/11/04 05:17:57;;;;;;;2.10;1.90;;;;;;;7.47;69.91;93831.09;4989848;28;20022;-70
2021/11/04 05:20:22;;;;;;;2.65;2.13;;;;;;;8.06;69.19;93846.25;4989208;28;20388;-69
2021/11/04 05:22:48;;;;;;;2.33;2.13;;;;;;;8.13;68.87;93841.22;4989466;28;20030;-70
2021/11/04 05:25:13;;;;;;;1.35;1.25;;;;;;;8.06;67.03;93854.97;4989423;28;20541;-70
2021/11/04 05:27:46;;;;;;;1.13;1.02;;;;;;;7.32;68.77;93846.66;4969611;28;20392;-70
2021/11/04 05:30:15;;;;;;;1.38;1.15;;;;;;;8.12;69.11;93866.16;4980113;28;20485;-71
2021/11/04 05:32:41;;;;;;;1.52;1.10;;;;;;;7.72;67.11;93832.06;4993284;28;20030;-73
2021/11/04 05:35:06;;;;;;;1.35;1.25;;;;;;;7.87;67.78;93859.13;4992831;28;20026;-73
2021/11/04 05:37:32;;;;;;;1.60;1.05;;;;;;;7.49;68.01;93881.03;4993270;28;20049;-73
2021/11/04 05:39:57;;;;;;;1.55;1.45;;;;;;;7.54;67.42;93870.28;4992959;28;20027;-73
2021/11/04 05:42:22;;;;;;;2.60;1.88;;;;;;;7.27;68.53;93864.25;4987165;28;20027;-73
2021/11/04 05:44:50;;;;;;;2.03;1.92;;;;;;;8.31;67.33;93887.75;4988803;28;20030;-78
2021/11/04 05:47:15;;;;;;;3.30;2.97;;;;;;;7.34;68.31;93889.47;4993934;28;20034;-80
2021/11/04 05:49:41;;;;;;;1.75;1.65;;;;;;;7.49;67.73;93889.75;4993689;28;20026;-78
2021/11/04 05:52:06;;;;;;;2.38;2.13;;;;;;;7.78;67.16;93894.34;4994321;28;20062;-72
2021/11/04 05:54:32;;;;;;;3.05;2.75;;;;;;;7.76;66.89;93880.63;4992458;28;20033;-78
2021/11/04 05:56:57;;;;;;;2.92;2.72;;;;;;;8.70;66.58;93922.16;4995306;28;20035;-75
2021/11/04 05:59:23;;;;;;;2.20;2.10;;;;;;;8.51;65.72;93912.75;4982128;28;20084;-75
2021/11/04 06:01:48;;;;;;;2.60;2.40;;;;;;;8.83;65.26;93908.66;4992375;28;20117;-80
2021/11/04 06:04:13;;;;;;;2.75;2.50;;;;;;;7.85;67.47;93917.69;4993929;28;20030;-81
2021/11/04 06:06:39;;;;;;;2.90;2.63;;;;;;;7.77;66.19;93921.88;4993616;28;20080;-77
2021/11/04 06:09:04;;;;;;;2.83;2.63;;;;;;;7.90;68.83;93916.72;4992414;28;20041;-72
2021/11/04 06:11:30;;;;;;;3.50;3.20;;;;;;;7.89;67.34;93909.91;4997521;28;20030;-73
2021/11/04 06:13:55;;;;;;;3.35;3.05;;;;;;;7.95;66.79;93901.44;4970281;28;20060;-70
2021/11/04 06:16:20;;;;;;;4.10;2.50;;;;;;;7.47;68.96;93912.28;4973931;28;20035;-66
2021/11/04 06:18:46;;;;;;;4.20;3.83;;;;;;;8.05;67.01;93918.88;4973482;28;20037;-67
2021/11/04 06:21:15;;;;;;;2.05;1.83;;;;;;;7.77;68.79;93939.66;4973186;28;20022;-70
2021/11/04 06:23:41;;;;;;;494.83;164.90;;;;;;;8.73;66.12;93951.47;4973309;28;20038;-77
2021/11/04 06:26:06;;;;;;;6.40;4.30;;;;;;;9.07;63.28;93950.47;4974195;28;20100;-79
2021/11/04 06:28:32;;;;;;;62.53;22.05;;;;;;;8.49;64.39;93938.03;4977049;28;20101;-78
2021/11/04 06:30:57;;;;;;;44.50;16.17;;;;;;;8.74;64.68;93954.88;4955189;28;20031;-79
2021/11/04 06:33:23;;;;;;;8.25;5.50;;;;;;;8.59;63.31;93943.72;4989674;28;20069;-76
2021/11/04 06:35:52;;;;;;;9.02;4.70;;;;;;;8.42;65.09;93948.34;4992320;28;20030;-69
2021/11/04 06:38:17;;;;;;;2.05;1.95;;;;;;;7.49;65.57;93941.88;4991232;28;20037;-72
2021/11/04 06:40:42;;;;;;;2.33;2.13;;;;;;;7.37;66.11;93947.00;4989331;28;20430;-71
2021/11/04 06:43:08;;;;;;;1.83;1.73;;;;;;;7.18;66.43;93955.28;4969153;28;20055;-73
2021/11/04 06:45:35;;;;;;;2.35;2.15;;;;;;;7.87;66.26;93941.19;4973475;28;20029;-80
2021/11/04 06:48:02;;;;;;;1.80;1.70;;;;;;;7.42;67.00;93952.13;4988956;28;20041;-83
2021/11/04 06:50:32;;;;;;;1.73;1.63;;;;;;;7.29;66.91;93954.66;4991891;28;20026;-81
2021/11/04 06:53:06;;;;;;;1.63;1.52;;;;;;;8.05;64.93;93954.06;4993711;28;20536;-81
2021/11/04 06:55:34;;;;;;;1.30;1.30;;;;;;;8.29;64.72;93966.78;5009579;28;20057;-81
2021/11/04 06:58:18;;;;;;;3.88;3.08;;;;;;;8.32;66.30;93971.41;4972617;28;20033;-78
2021/11/04 07:00:47;;;;;;;1.75;1.65;;;;;;;8.70;66.43;93986.59;4970974;28;20421;-74
2021/11/04 07:03:23;;;;;;;1.20;1.10;;;;;;;8.00;63.63;93985.25;4973265;28;20420;-79
2021/11/04 07:05:55;;;;;;;1.13;1.00;;;;;;;7.67;65.34;93963.78;4974670;28;20030;-79
2021/11/04 07:08:22;;;;;;;1.25;1.25;;;;;;;8.10;65.04;94002.66;4974593;28;20436;-79
2021/11/04 07:10:47;;;;;;;1.30;1.20;;;;;;;7.69;64.93;93999.47;4972585;28;20030;-73
2021/11/04 07:13:14;;;;;;;1.20;1.10;;;;;;;7.76;65.29;94012.22;4961727;28;20023;-76
2021/11/04 07:15:41;;;;;;;3.15;2.95;;;;;;;8.39;65.55;94020.50;4966341;28;20031;-68
2021/11/04 07:18:09;;;;;;;3.17;2.28;;;;;;;9.14;63.29;94018.16;4974789;28;20027;-71
2021/11/04 07:20:36;;;;;;;1.80;1.70;;;;;;;8.73;66.05;94017.75;4969941;28;20026;-71
2021/11/04 07:23:02;;;;;;;1.58;1.48;;;;;;;8.88;62.23;94020.94;4970364;28;20176;-72
2021/11/04 07:25:29;;;;;;;1.20;1.20;;;;;;;8.20;63.13;94018.22;4972657;28;20041;-78
2021/11/04 07:27:59;;;;;;;2.95;1.17;;;;;;;8.28;63.94;94028.00;4960702;28;20384;-77
2021/11/04 07:30:27;;;;;;;1.38;1.20;;;;;;;8.04;64.52;94015.31;4974585;28;20033;-78
2021/11/04 07:32:57;;;;;;;0.93;0.93;;;;;;;7.92;64.71;94023.09;4973108;28;20026;-76
2021/11/04 07:35:26;;;;;;;0.95;0.95;;;;;;;8.32;63.54;94040.31;4988398;28;20031;-79
2021/11/04 07:37:52;;;;;;;0.88;0.88;;;;;;;7.38;66.45;94025.31;4973352;28;20027;-79
2021/11/04 07:40:22;;;;;;;0.82;0.82;;;;;;;8.09;63.87;94028.38;4973050;28;20027;-79
2021/11/04 07:42:47;;;;;;;0.80;0.80;;;;;;;8.27;63.67;94045.78;4976903;28;20027;-79
2021/11/04 07:45:14;;;;;;;0.82;0.82;;;;;;;8.52;63.07;94056.66;4962328;28;20097;-77
2021/11/04 07:47:42;;;;;;;0.70;0.70;;;;;;;8.33;63.19;94060.41;4991639;28;20030;-77
2021/11/04 07:50:09;;;;;;;0.45;0.40;;;;;;;7.22;65.52;94065.44;4990930;28;20037;-79
2021/11/04 07:52:37;;;;;;;0.80;0.80;;;;;;;8.05;65.14;94062.66;4989377;28;20031;-74
2021/11/04 07:55:04;;;;;;;0.40;0.40;;;;;;;7.60;65.17;94079.94;4991338;28;20029;-78
2021/11/04 07:57:31;;;;;;;0.82;0.50;;;;;;;7.84;63.48;94077.63;4985206;28;20042;-77
2021/11/04 07:59:56;;;;;;;0.43;0.43;;;;;;;7.93;64.06;94086.31;4964277;28;20086;-79
2021/11/04 08:02:21;;;;;;;0.95;0.75;;;;;;;8.65;62.53;94074.25;4972639;28;20023;-79
2021/11/04 08:04:47;;;;;;;1.65;0.60;;;;;;;8.27;62.72;94090.81;4972300;28;20026;-78
2021/11/04 08:07:12;;;;;;;0.40;0.40;;;;;;;8.64;62.20;94093.09;4971519;28;20019;-79
2021/11/04 08:09:38;;;;;;;0.45;0.45;;;;;;;8.95;62.04;94096.25;4972351;28;20111;-78
2021/11/04 08:12:03;;;;;;;0.50;0.50;;;;;;;9.30;60.21;94102.19;4982402;28;20716;-78
2021/11/04 08:14:29;;;;;;;0.45;0.45;;;;;;;8.52;61.73;94105.13;4959552;28;20031;-78
2021/11/04 08:16:54;;;;;;;0.40;0.40;;;;;;;7.78;63.94;94098.19;4953332;28;20035;-76
2021/11/04 08:19:20;;;;;;;0.52;0.52;;;;;;;8.36;63.20;94112.03;4952822;28;20051;-77
2021/11/04 08:21:46;;;;;;;1.33;0.63;;;;;;;7.70;64.26;94109.53;4953319;28;20042;-78
2021/11/04 08:24:12;;;;;;;0.30;0.30;;;;;;;8.64;61.69;94107.13;4968369;28;20135;-81
2021/11/04 08:26:38;;;;;;;1.75;0.55;;;;;;;8.62;61.21;94111.19;4971545;28;20110;-79
2021/11/04 08:29:04;;;;;;;0.77;0.45;;;;;;;8.86;60.88;94122.06;4960881;28;20369;-79
2021/11/04 08:31:30;;;;;;;0.68;0.45;;;;;;;8.25;61.71;94122.16;4951875;28;20033;-79
2021/11/04 08:33:56;;;;;;;0.45;0.45;;;;;;;8.22;61.66;94092.84;4952662;28;20031;-79
2021/11/04 08:36:22;;;;;;;0.40;0.40;;;;;;;8.87;60.57;94126.25;4952780;28;20031;-79
2021/11/04 08:38:47;;;;;;;1.33;1.00;;;;;;;8.84;61.24;94132.19;4953162;28;20058;-78
2021/11/04 08:41:13;;;;;;;1.13;0.30;;;;;;;8.45;62.10;94141.19;4953089;28;20023;-78
2021/11/04 08:43:38;;;;;;;0.40;0.30;;;;;;;7.80;62.78;94143.63;4971421;28;20384;-79
2021/11/04 08:46:05;;;;;;;0.50;0.50;;;;;;;8.14;61.98;94149.25;5002861;28;20077;-78
2021/11/04 08:48:31;;;;;;;0.82;0.52;;;;;;;8.50;60.87;94144.44;4990030;28;20085;-77
2021/11/04 08:50:56;;;;;;;0.40;0.35;;;;;;;8.62;61.60;94157.03;4991058;28;20648;-77
2021/11/04 08:53:22;;;;;;;0.50;0.40;;;;;;;9.10;59.26;94138.16;4991047;28;20019;-78
2021/11/04 08:55:47;;;;;;;0.45;0.38;;;;;;;9.62;59.05;94140.59;4991427;28;20030;-78
2021/11/04 08:58:13;;;;;;;0.43;0.40;;;;;;;9.34;58.05;94155.41;4971481;28;20055;-78
2021/11/04 09:00:39;;;;;;;1.13;0.40;;;;;;;8.53;60.89;94166.88;4957045;28;20462;-72
2021/11/04 09:03:05;;;;;;;0.43;0.43;;;;;;;9.14;59.50;94169.38;4957761;28;20031;-82
2021/11/04 09:05:30;;;;;;;0.60;0.35;;;;;;;9.69;59.50;94171.16;4956571;28;20027;-83
2021/11/04 09:07:56;;;;;;;0.60;0.50;;;;;;;9.74;57.69;94179.72;4957622;28;20488;-82
2021/11/04 09:10:28;;;;;;;0.32;0.32;;;;;;;8.56;60.61;94185.59;4957257;28;20050;-83
2021/11/04 09:12:54;;;;;;;0.38;0.30;;;;;;;8.63;60.16;94179.78;4966804;28;20042;-82
2021/11/04 09:15:19;;;;;;;0.50;0.50;;;;;;;9.54;58.89;94183.88;4971936;28;20049;-83
2021/11/04 09:17:45;;;;;;;0.35;0.35;;;;;;;9.22;58.56;94173.88;4976878;28;20031;-82
2021/11/04 09:20:14;;;;;;;0.35;0.25;;;;;;;8.58;60.40;94179.97;4976009;28;20165;-82
2021/11/04 09:22:40;;;;;;;0.20;0.20;;;;;;;9.11;58.68;94192.03;4976574;28;20543;-82
2021/11/04 09:25:06;;;;;;;0.43;0.40;;;;;;;9.30;58.86;94199.59;4976310;28;20022;-82
2021/11/04 09:27:32;;;;;;;0.30;0.30;;;;;;;9.52;57.68;94202.00;4967722;28;20477;-81
2021/11/04 09:29:59;;;;;;;0.40;0.40;;;;;;;9.45;59.57;94208.91;4968575;28;20030;-81
2021/11/04 09:32:24;;;;;;;0.50;0.50;;;;;;;9.76;57.39;94204.06;4976317;28;20026;-82
2021/11/04 09:34:51;;;;;;;0.40;0.40;;;;;;;10.12;57.39;94208.06;4974921;28;20029;-82
2021/11/04 09:37:18;;;;;;;0.50;0.50;;;;;;;10.47;56.59;94224.56;4976690;28;20031;-82
2021/11/04 09:39:47;;;;;;;0.55;0.40;;;;;;;9.58;57.13;94232.59;4976103;28;20103;-83
2021/11/04 09:42:19;;;;;;;0.50;0.40;;;;;;;10.08;56.51;94233.72;4969821;28;20025;-83
2021/11/04 09:44:46;;;;;;;2.67;0.40;;;;;;;10.97;54.95;94246.84;4988225;28;20023;-84
2021/11/04 09:47:11;;;;;;;0.47;0.47;;;;;;;10.11;55.78;94233.09;4975192;28;20035;-84
2021/11/04 09:49:37;;;;;;;1.08;0.50;;;;;;;10.05;55.76;94240.47;4975395;28;20065;-79
2021/11/04 09:52:02;;;;;;;0.40;0.40;;;;;;;9.96;55.92;94252.25;4974603;28;20057;-83
2021/11/04 09:54:28;;;;;;;1.10;0.40;;;;;;;9.33;58.33;94247.50;4975827;28;20033;-81
2021/11/04 09:56:53;;;;;;;0.60;0.60;;;;;;;10.29;55.38;94255.06;4975339;28;20062;-81
2021/11/04 10:00:04;;;;;;;0.50;0.50;;;;;;;10.00;57.17;94274.41;4969005;28;20094;-81
2021/11/04 10:02:30;;;;;;;0.43;0.43;;;;;;;9.05;57.64;94239.13;4955264;29;20125;-82
2021/11/04 10:05:07;;;;;;;0.50;0.50;;;;;;;9.82;57.74;94250.56;4956219;28;20059;-80
2021/11/04 10:07:50;;;;;;;0.50;0.50;;;;;;;11.24;53.51;94280.84;4956412;28;20050;-81
2021/11/04 10:10:18;;;;;;;0.70;0.70;;;;;;;11.12;55.13;94260.31;4955059;29;20086;-81
2021/11/04 10:13:04;;;;;;;0.50;0.50;;;;;;;10.23;55.74;94274.91;4962926;28;20042;-78
2021/11/04 10:15:33;;;;;;;0.40;0.35;;;;;;;10.71;54.46;94273.66;4956244;28;20030;-83
2021/11/04 10:18:13;;;;;;;1.35;0.50;;;;;;;12.10;50.49;94262.34;4970072;28;20125;-74
2021/11/04 10:20:39;;;;;;;0.60;0.43;;;;;;;10.61;53.34;94266.84;4991758;28;20480;-80
2021/11/04 10:23:13;;;;;;;0.50;0.50;;;;;;;10.57;54.22;94266.72;5008692;28;20022;-76
2021/11/04 10:25:41;;;;;;;1.40;0.65;;;;;;;11.01;53.26;94277.78;4993414;28;20073;-76
2021/11/04 10:28:30;;;;;;;0.75;0.75;;;;;;;10.93;54.24;94283.97;4979549;28;20023;-79
2021/11/04 10:30:57;;;;;;;1.75;0.82;;;;;;;10.68;54.62;94288.38;4972378;28;20046;-81
2021/11/04 10:33:25;;;;;;;1.70;0.90;;;;;;;10.97;53.85;94298.16;4994907;28;20081;-88
2021/11/04 10:36:13;;;;;;;0.80;0.80;;;;;;;10.29;54.72;94269.13;4993468;28;20026;-82
2021/11/04 10:38:47;;;;;;;1.23;1.15;;;;;;;10.82;54.35;94275.59;4994883;28;20089;-85
2021/11/04 10:41:29;;;;;;;1.42;0.65;;;;;;;10.47;54.66;94282.28;4994367;28;20033;-85
2021/11/04 10:44:01;;;;;;;1.13;1.02;;;;;;;10.73;54.72;94272.22;4964162;28;20531;-87
2021/11/04 10:46:27;;;;;;;2.63;0.45;;;;;;;10.88;52.96;94284.94;4955645;28;20057;-85
2021/11/04 10:49:03;;;;;;;0.57;0.57;;;;;;;11.06;52.75;94280.25;4955776;28;20027;-86
2021/11/04 10:51:33;;;;;;;0.55;0.55;;;;;;;10.37;54.81;94280.78;4958348;28;20429;-85
2021/11/04 10:54:10;;;;;;;1.20;1.10;;;;;;;9.88;55.35;94283.06;4958530;28;20376;-85
2021/11/04 10:56:38;;;;;;;1.02;0.88;;;;;;;10.79;54.46;94278.91;4954514;29;20023;-81
2021/11/04 10:59:08;;;;;;;0.63;0.63;;;;;;;10.84;53.42;94294.66;4969114;28;20031;-84
2021/11/04 11:01:46;;;;;;;1.63;0.60;;;;;;;10.56;54.69;94289.09;4999075;28;20114;-83
2021/11/04 11:04:17;;;;;;;0.73;0.73;;;;;;;10.61;54.03;94304.09;5008928;28;20034;-85
2021/11/04 11:06:54;;;;;;;0.68;0.65;;;;;;;10.74;53.24;94302.25;5009257;28;20023;-84
2021/11/04 11:09:30;;;;;;;0.77;0.60;;;;;;;10.34;53.58;94303.47;4992340;28;20506;-84
2021/11/04 11:12:02;;;;;;;0.52;0.52;;;;;;;11.29;53.25;94303.81;4990968;28;20031;-82
2021/11/04 11:14:29;;;;;;;;;;;;;;;10.99;52.50;94313.81;4966721;28;20081;-83
2021/11/04 11:16:58;;;;;;;0.25;0.25;;;;;;;9.43;56.22;94319.94;4968089;28;19917;-83
2021/11/04 11:19:38;;;;;;;0.65;0.60;;;;;;;10.91;52.41;94318.88;4989874;28;20030;-85
2021/11/04 11:22:06;;;;;;;0.70;0.70;;;;;;;10.51;54.13;94336.38;4973267;28;20019;-84
2021/11/04 11:24:36;;;;;;;0.55;0.55;;;;;;;11.23;51.32;94331.75;4973598;28;20031;-83
2021/11/04 11:27:16;;;;;;;1.23;0.73;;;;;;;10.26;54.82;94349.47;4974151;28;20057;-83
2021/11/04 11:29:44;;;;;;;1.98;1.20;;;;;;;10.00;54.48;94333.63;4955920;28;20508;-85
2021/11/04 11:32:28;;;;;;;0.68;0.65;;;;;;;10.36;53.43;94343.03;4953922;29;20059;-89
2021/11/04 11:35:19;;;;;;;0.60;0.50;;;;;;;9.79;54.97;94357.47;4954809;28;20027;-87
2021/11/04 11:38:07;;;;;;;2.30;0.70;;;;;;;10.88;52.30;94342.69;4955006;28;20031;-85
2021/11/04 11:40:36;;;;;;;0.45;0.45;;;;;;;10.00;54.48;94364.75;4952971;29;20410;-84
2021/11/04 11:43:12;;;;;;;1.30;0.52;;;;;;;10.74;52.04;94361.56;4958308;28;20046;-84